地図

経路データ

SID SEASON NUMBER BASIN SUBBASIN NAME ISO_TIME NATURE LAT LON WMO_WIND WMO_PRES WMO_AGENCY TRACK_TYPE DIST2LAND LANDFALL IFLAG USA_AGENCY USA_ATCF_ID USA_LAT USA_LON USA_RECORD USA_STATUS USA_WIND USA_PRES USA_SSHS USA_R34_NE USA_R34_SE USA_R34_SW USA_R34_NW USA_R50_NE USA_R50_SE USA_R50_SW USA_R50_NW USA_R64_NE USA_R64_SE USA_R64_SW USA_R64_NW USA_POCI USA_ROCI USA_RMW USA_EYE TOKYO_LAT TOKYO_LON TOKYO_GRADE TOKYO_WIND TOKYO_PRES TOKYO_R50_DIR TOKYO_R50_LONG TOKYO_R50_SHORT TOKYO_R30_DIR TOKYO_R30_LONG TOKYO_R30_SHORT TOKYO_LAND CMA_LAT CMA_LON CMA_CAT CMA_WIND CMA_PRES HKO_LAT HKO_LON HKO_CAT HKO_WIND HKO_PRES NEWDELHI_LAT NEWDELHI_LON NEWDELHI_GRADE NEWDELHI_WIND NEWDELHI_PRES NEWDELHI_CI NEWDELHI_DP NEWDELHI_POCI REUNION_LAT REUNION_LON REUNION_TYPE REUNION_WIND REUNION_PRES REUNION_TNUM REUNION_CI REUNION_RMW REUNION_R34_NE REUNION_R34_SE REUNION_R34_SW REUNION_R34_NW REUNION_R50_NE REUNION_R50_SE REUNION_R50_SW REUNION_R50_NW REUNION_R64_NE REUNION_R64_SE REUNION_R64_SW REUNION_R64_NW BOM_LAT BOM_LON BOM_TYPE BOM_WIND BOM_PRES BOM_TNUM BOM_CI BOM_RMW BOM_R34_NE BOM_R34_SE BOM_R34_SW BOM_R34_NW BOM_R50_NE BOM_R50_SE BOM_R50_SW BOM_R50_NW BOM_R64_NE BOM_R64_SE BOM_R64_SW BOM_R64_NW BOM_ROCI BOM_POCI BOM_EYE BOM_POS_METHOD BOM_PRES_METHOD NADI_LAT NADI_LON NADI_CAT NADI_WIND NADI_PRES WELLINGTON_LAT WELLINGTON_LON WELLINGTON_WIND WELLINGTON_PRES DS824_LAT DS824_LON DS824_STAGE DS824_WIND DS824_PRES TD9636_LAT TD9636_LON TD9636_STAGE TD9636_WIND TD9636_PRES TD9635_LAT TD9635_LON TD9635_WIND TD9635_PRES TD9635_ROCI NEUMANN_LAT NEUMANN_LON NEUMANN_CLASS NEUMANN_WIND NEUMANN_PRES MLC_LAT MLC_LON MLC_CLASS MLC_WIND MLC_PRES USA_GUST BOM_GUST BOM_GUST_PER REUNION_GUST REUNION_GUST_PER USA_SEAHGT USA_SEARAD_NE USA_SEARAD_SE USA_SEARAD_SW USA_SEARAD_NW STORM_SPEED STORM_DIR
1966181N29296 1966 37 NA NA BECKY 1966-06-30 00:00:00 SS 29.0000 -64.0000 30 hurdat_atl main 1195 1195 O_____________ hurdat_atl AL021966 29.0000 -64.0000 SD 30 -2 10 0
1966181N29296 1966 37 NA NA BECKY 1966-06-30 03:00:00 SS 29.5100 -63.9951 main 1251 1250 P_____________ AL021966 29.5100 -63.9951 SD 30 -2 10 1
1966181N29296 1966 37 NA NA BECKY 1966-06-30 06:00:00 SS 30.0000 -64.0000 30 hurdat_atl main 1250 1225 O_____________ hurdat_atl AL021966 30.0000 -64.0000 SD 30 -2 9 0
1966181N29296 1966 37 NA NA BECKY 1966-06-30 09:00:00 SS 30.4450 -64.0149 main 1225 1202 P_____________ AL021966 30.4450 -64.0149 SD 30 -2 8 1
1966181N29296 1966 37 NA NA BECKY 1966-06-30 12:00:00 SS 30.8000 -64.0000 30 hurdat_atl main 1202 1191 O_____________ hurdat_atl AL021966 30.8000 -64.0000 SD 30 -2 6 4
1966181N29296 1966 37 NA NA BECKY 1966-06-30 15:00:00 SS 31.0373 -63.9598 main 1191 1188 P_____________ AL021966 31.0373 -63.9598 SD 32 -2 4 23
1966181N29296 1966 37 NA NA BECKY 1966-06-30 18:00:00 SS 31.2000 -63.8000 35 hurdat_atl main 1196 1196 O_____________ hurdat_atl AL021966 31.2000 -63.8000 SS 35 -2 5 52
1966181N29296 1966 37 NA NA BECKY 1966-06-30 21:00:00 SS 31.3573 -63.4749 main 1211 1211 P_____________ AL021966 31.3573 -63.4749 SS 35 -2 7 66
1966181N29296 1966 37 NA NA BECKY 1966-07-01 00:00:00 SS 31.5000 -63.0000 35 hurdat_atl main 1249 1249 O_____________ hurdat_atl AL021966 31.5000 -63.0000 SS 35 -2 9 72
1966181N29296 1966 37 NA NA BECKY 1966-07-01 03:00:00 SS 31.6347 -62.4520 main 1286 1286 P_____________ AL021966 31.6347 -62.4520 SS 35 -2 11 74
1966181N29296 1966 37 NA NA BECKY 1966-07-01 06:00:00 SS 31.8000 -61.8000 35 hurdat_atl main 1320 1320 O_____________ hurdat_atl AL021966 31.8000 -61.8000 SS 35 -2 12 72
1966181N29296 1966 37 NA NA BECKY 1966-07-01 09:00:00 SS 32.0195 -61.0944 main 1332 1318 P_____________ AL021966 32.0195 -61.0944 SS 37 -2 14 69
1966181N29296 1966 37 NA NA BECKY 1966-07-01 12:00:00 TS 32.3000 -60.3000 40 hurdat_atl main 1321 1314 O_____________ hurdat_atl AL021966 32.3000 -60.3000 TS 40 0 15 68
1966181N29296 1966 37 NA NA BECKY 1966-07-01 15:00:00 TS 32.6053 -59.3994 main 1317 1305 P_____________ AL021966 32.6053 -59.3994 TS 42 0 17 65
1966181N29296 1966 37 NA NA BECKY 1966-07-01 18:00:00 TS 33.0000 -58.5000 45 hurdat_atl main 1309 1288 O_____________ hurdat_atl AL021966 33.0000 -58.5000 TS 45 0 17 58
1966181N29296 1966 37 NA NA BECKY 1966-07-01 21:00:00 TS 33.4966 -57.7264 main 1292 1267 P_____________ AL021966 33.4966 -57.7264 TS 47 0 17 49
1966181N29296 1966 37 NA NA BECKY 1966-07-02 00:00:00 TS 34.1000 -57.0000 50 hurdat_atl main 1267 1239 O_____________ hurdat_atl AL021966 34.1000 -57.0000 TS 50 0 18 46
1966181N29296 1966 37 NA NA BECKY 1966-07-02 03:00:00 TS 34.7255 -56.1900 main 1239 1177 P_____________ AL021966 34.7255 -56.1900 TS 55 0 19 41
1966181N29296 1966 37 NA NA BECKY 1966-07-02 06:00:00 TS 35.5000 -55.5000 60 hurdat_atl main 1177 1090 O_____________ hurdat_atl AL021966 35.5000 -55.5000 TS 60 0 20 28
1966181N29296 1966 37 NA NA BECKY 1966-07-02 09:00:00 TS 36.5119 -55.0449 main 1093 1003 P_____________ AL021966 36.5119 -55.0449 TS 65 1 22 15
1966181N29296 1966 37 NA NA BECKY 1966-07-02 12:00:00 TS 37.6000 -54.8000 70 hurdat_atl main 993 905 O_____________ hurdat_atl AL021966 37.6000 -54.8000 HU 70 1 21 8
1966181N29296 1966 37 NA NA BECKY 1966-07-02 15:00:00 TS 38.5647 -54.6742 main 894 805 P_____________ AL021966 38.5647 -54.6742 HU 72 1 19 2
1966181N29296 1966 37 NA NA BECKY 1966-07-02 18:00:00 TS 39.5000 -54.7000 75 984 hurdat_atl main 794 695 O_____________ hurdat_atl AL021966 39.5000 -54.7000 HU 75 984 1 19 358
1966181N29296 1966 37 NA NA BECKY 1966-07-02 21:00:00 TS 40.4647 -54.7687 main 684 599 P_____________ AL021966 40.4647 -54.7687 HU 70 1 19 353
1966181N29296 1966 37 NA NA BECKY 1966-07-03 00:00:00 ET 41.4000 -55.0000 65 hurdat_atl main 588 507 O_____________ hurdat_atl AL021966 41.4000 -55.0000 EX 65 -4 19 345
1966181N29296 1966 37 NA NA BECKY 1966-07-03 03:00:00 ET 42.2721 -55.4036 main 498 411 P_____________ AL021966 42.2721 -55.4036 EX 60 -4 19 336
1966181N29296 1966 37 NA NA BECKY 1966-07-03 06:00:00 ET 43.1000 -56.0000 55 hurdat_atl main 411 331 O_____________ hurdat_atl AL021966 43.1000 -56.0000 EX 55 -4 20 330
1966181N29296 1966 37 NA NA BECKY 1966-07-03 09:00:00 ET 43.9676 -56.7458 main 320 230 P_____________ AL021966 43.9676 -56.7458 EX 50 -4 20 324
1966181N29296 1966 37 NA NA BECKY 1966-07-03 12:00:00 ET 44.7000 -57.6000 45 hurdat_atl main 230 147 O_____________ hurdat_atl AL021966 44.7000 -57.6000 EX 45 -4 17 315
1966181N29296 1966 37 NA NA BECKY 1966-07-03 15:00:00 ET 45.1784 -58.4555 main 140 70 P_____________ AL021966 45.1784 -58.4555 EX 40 -4 14 304
1966181N29296 1966 37 NA NA BECKY 1966-07-03 18:00:00 ET 45.5000 -59.3000 35 hurdat_atl main 70 O_____________ hurdat_atl AL021966 45.5000 -59.3000 EX 35 -4 13 299

IBTrACS Databaseについて

本データベースは、米国NOAAが公開する1842年以降の世界の熱帯低気圧のベストトラックデータアーカイブInternational Best Track Archive for Climate Stewardship (IBTrACS)を、ウェブで閲覧しやすい形式に変換したものです。

最終更新日:2022-05-24